Time;durP1;ratioP1;P1;durP2;ratioP2;P2;SDS_P1;SDS_P2;PMS_P1;PMS_P2;Temp;Humidity;BMP_temperature;BMP_pressure;BME280_temperature;BME280_humidity;BME280_pressure;Samples;Min_cycle;Max_cycle;Signal;HPM_P1;HPM_P2
2022/07/15 00:01:38;;;;;;;6.30;3.40;;;;;;;13.42;98.70;102211.44;5028918;28;20025;-59
2022/07/15 00:04:03;;;;;;;8.23;3.40;;;;;;;13.38;99.46;102208.66;5028814;28;20022;-60
2022/07/15 00:06:29;;;;;;;6.97;3.20;;;;;;;13.33;99.40;102208.44;5027789;28;20029;-59
2022/07/15 00:08:54;;;;;;;7.03;3.13;;;;;;;13.28;99.67;102203.06;5029485;28;20033;-59
2022/07/15 00:11:20;;;;;;;6.85;3.00;;;;;;;13.23;100.00;102206.28;5018043;28;20390;-60
2022/07/15 00:13:45;;;;;;;6.32;3.00;;;;;;;13.20;99.84;102204.44;5028852;28;20048;-60
2022/07/15 00:16:10;;;;;;;8.55;3.40;;;;;;;13.18;99.68;102207.00;5028282;28;20056;-60
2022/07/15 00:18:36;;;;;;;8.63;3.78;;;;;;;13.11;99.99;102204.94;5028663;28;20048;-59
2022/07/15 00:21:01;;;;;;;5.18;3.10;;;;;;;13.05;100.00;102210.75;5029178;28;20039;-59
2022/07/15 00:23:26;;;;;;;7.80;3.10;;;;;;;13.01;100.00;102203.63;5028978;28;20057;-60
2022/07/15 00:25:52;;;;;;;7.93;3.10;;;;;;;13.02;100.00;102201.94;5028481;28;20033;-60
2022/07/15 00:28:17;;;;;;;6.68;3.10;;;;;;;13.01;100.00;102210.53;5028202;28;20071;-60
2022/07/15 00:30:42;;;;;;;9.32;3.35;;;;;;;13.03;100.00;102206.31;5020193;28;20076;-60
2022/07/15 00:33:09;;;;;;;7.45;3.05;;;;;;;13.02;100.00;102200.22;5028784;28;20037;-59
2022/07/15 00:35:36;;;;;;;10.02;3.10;;;;;;;13.03;100.00;102204.59;5028234;28;20025;-59
2022/07/15 00:38:03;;;;;;;7.28;3.17;;;;;;;13.03;100.00;102198.50;5028255;28;20032;-60
2022/07/15 00:40:29;;;;;;;8.77;3.05;;;;;;;13.05;100.00;102200.34;5028550;28;20122;-60
2022/07/15 00:42:55;;;;;;;6.43;3.10;;;;;;;13.03;100.00;102198.50;5017968;28;20397;-61
2022/07/15 00:45:23;;;;;;;6.53;3.25;;;;;;;12.94;100.00;102202.47;5017717;28;20025;-59
2022/07/15 00:47:54;;;;;;;8.52;3.33;;;;;;;12.87;100.00;102200.44;5025876;28;20104;-60
2022/07/15 00:50:21;;;;;;;7.07;3.55;;;;;;;12.80;100.00;102200.97;5017424;28;20045;-60
2022/07/15 00:53:06;;;;;;;6.13;3.15;;;;;;;12.77;100.00;102200.84;5022213;28;20018;-60
2022/07/15 00:55:33;;;;;;;8.40;3.15;;;;;;;12.68;100.00;102202.19;5020397;28;20044;-58
2022/07/15 00:58:03;;;;;;;7.15;3.00;;;;;;;12.65;100.00;102201.16;5020062;28;20079;-60
2022/07/15 01:00:29;;;;;;;7.45;2.92;;;;;;;12.63;100.00;102203.69;5028341;28;20036;-60
2022/07/15 01:02:54;;;;;;;8.75;3.05;;;;;;;12.61;100.00;102205.34;5018595;28;20397;-59
2022/07/15 01:05:21;;;;;;;6.15;3.00;;;;;;;12.56;100.00;102196.44;5028071;28;20041;-60
2022/07/15 01:07:49;;;;;;;6.18;2.92;;;;;;;12.56;100.00;102201.66;5027638;28;20362;-60
2022/07/15 01:10:15;;;;;;;7.43;3.17;;;;;;;12.49;100.00;102203.97;5027861;28;20030;-60
2022/07/15 01:12:40;;;;;;;5.13;3.15;;;;;;;12.45;100.00;102191.66;5027598;28;20026;-58
2022/07/15 01:15:07;;;;;;;6.05;2.92;;;;;;;12.41;100.00;102200.13;5027209;28;20067;-60
2022/07/15 01:17:32;;;;;;;10.20;3.00;;;;;;;12.41;100.00;102201.84;5023459;28;20072;-60
2022/07/15 01:19:58;;;;;;;6.95;3.35;;;;;;;12.39;100.00;102190.47;5028155;28;20025;-58
2022/07/15 01:22:23;;;;;;;6.28;3.30;;;;;;;12.34;100.00;102198.09;5027540;28;20029;-60
2022/07/15 01:24:50;;;;;;;5.95;3.00;;;;;;;12.30;100.00;102201.34;5027356;28;20022;-59
2022/07/15 01:27:15;;;;;;;7.28;2.83;;;;;;;12.23;100.00;102195.84;5025066;28;20108;-60
2022/07/15 01:29:40;;;;;;;8.45;3.72;;;;;;;12.23;100.00;102195.84;5016657;28;20493;-59
2022/07/15 01:32:06;;;;;;;7.22;3.45;;;;;;;12.23;100.00;102202.78;5027378;28;20032;-60
2022/07/15 01:34:31;;;;;;;8.20;3.33;;;;;;;12.21;100.00;102202.72;5018259;28;20082;-59
2022/07/15 01:36:56;;;;;;;8.32;3.33;;;;;;;12.21;100.00;102207.91;5024155;28;20037;-58
2022/07/15 01:39:22;;;;;;;7.22;3.10;;;;;;;12.19;100.00;102212.13;5007789;28;20076;-60
2022/07/15 01:41:47;;;;;;;8.93;3.53;;;;;;;12.17;100.00;102211.16;5006764;28;20449;-60
2022/07/15 01:44:14;;;;;;;6.65;3.67;;;;;;;12.15;100.00;102209.31;5008710;28;20108;-59
2022/07/15 01:46:39;;;;;;;9.77;3.63;;;;;;;12.14;100.00;102211.03;5007270;28;20502;-59
2022/07/15 01:49:25;;;;;;;6.10;3.00;;;;;;;12.14;100.00;102218.81;5008621;28;20064;-59
2022/07/15 01:51:53;;;;;;;7.15;3.47;;;;;;;12.11;100.00;102210.84;5019987;28;20501;-61
2022/07/15 01:54:19;;;;;;;6.28;3.05;;;;;;;12.08;100.00;102215.88;5016224;28;20021;-59
2022/07/15 01:56:44;;;;;;;9.70;3.83;;;;;;;12.06;100.00;102214.91;5015664;28;20091;-60
2022/07/15 01:59:09;;;;;;;8.77;4.18;;;;;;;12.04;100.00;102221.75;5014071;28;20397;-60
2022/07/15 02:01:35;;;;;;;10.00;4.28;;;;;;;12.01;100.00;102215.59;5007736;28;20231;-60
2022/07/15 02:04:00;;;;;;;11.20;4.43;;;;;;;11.97;100.00;102215.38;5008238;28;20038;-60
2022/07/15 02:06:26;;;;;;;9.18;4.07;;;;;;;11.92;100.00;102217.75;5008202;28;20013;-60
2022/07/15 02:08:51;;;;;;;7.78;3.65;;;;;;;11.90;100.00;102224.56;5007956;28;20030;-60
2022/07/15 02:11:17;;;;;;;6.97;3.50;;;;;;;11.87;100.00;102221.84;5021127;28;20029;-59
2022/07/15 02:13:43;;;;;;;8.48;3.45;;;;;;;11.89;100.00;102212.41;5007624;28;20048;-59
2022/07/15 02:16:08;;;;;;;9.30;3.90;;;;;;;11.88;100.00;102221.91;5014638;28;20034;-60
2022/07/15 02:18:34;;;;;;;7.70;4.00;;;;;;;11.89;100.00;102223.69;5026482;28;20025;-60
2022/07/15 02:20:59;;;;;;;7.90;3.28;;;;;;;11.86;100.00;102217.44;5026358;28;20036;-59
2022/07/15 02:23:25;;;;;;;7.28;4.15;;;;;;;11.83;100.00;102218.19;5026949;28;20108;-59
2022/07/15 02:25:50;;;;;;;6.40;3.33;;;;;;;11.81;100.00;102216.34;5025649;28;20087;-60
2022/07/15 02:28:15;;;;;;;6.03;3.42;;;;;;;11.79;100.00;102208.47;5026692;28;20037;-60
2022/07/15 02:30:42;;;;;;;6.97;3.42;;;;;;;11.77;100.00;102208.41;5012972;28;20036;-60
2022/07/15 02:33:08;;;;;;;5.97;3.38;;;;;;;11.74;100.00;102210.84;5026239;28;20033;-60
2022/07/15 02:35:34;;;;;;;5.13;3.42;;;;;;;11.73;100.00;102203.84;5025943;28;20139;-59
2022/07/15 02:37:59;;;;;;;6.15;3.53;;;;;;;11.74;100.00;102213.44;5011379;28;20545;-60
2022/07/15 02:40:26;;;;;;;11.93;4.22;;;;;;;11.69;100.00;102211.44;5019921;28;20056;-60
2022/07/15 02:42:53;;;;;;;5.75;3.65;;;;;;;11.66;100.00;102209.56;5026835;28;20052;-60
2022/07/15 02:45:20;;;;;;;7.55;3.50;;;;;;;11.66;100.00;102214.75;5026499;28;20032;-60
2022/07/15 02:47:46;;;;;;;9.10;3.63;;;;;;;11.63;100.00;102212.91;5026078;28;20063;-59
2022/07/15 02:50:11;;;;;;;5.93;3.58;;;;;;;11.60;100.00;102214.47;5027124;28;20034;-60
2022/07/15 02:52:37;;;;;;;7.63;3.67;;;;;;;11.60;100.00;102209.28;5026334;28;20035;-58
2022/07/15 02:55:03;;;;;;;8.80;3.90;;;;;;;11.60;100.00;102215.34;5024840;28;20034;-60
2022/07/15 02:57:29;;;;;;;6.30;3.65;;;;;;;11.59;100.00;102220.44;5019969;28;20030;-60
2022/07/15 02:59:54;;;;;;;5.22;3.13;;;;;;;11.58;100.00;102224.78;5026571;28;20090;-59
2022/07/15 03:02:19;;;;;;;4.18;3.28;;;;;;;11.56;100.00;102231.59;5026583;28;20029;-60
2022/07/15 03:04:45;;;;;;;9.00;3.83;;;;;;;11.50;100.00;102232.19;5025559;28;20501;-59
2022/07/15 03:07:10;;;;;;;7.60;3.85;;;;;;;11.46;100.00;102240.59;5026199;28;20037;-60
2022/07/15 03:09:36;;;;;;;11.07;4.40;;;;;;;11.42;100.00;102249.06;5012756;28;20029;-59
2022/07/15 03:12:01;;;;;;;6.85;3.83;;;;;;;11.39;100.00;102248.91;5026526;28;20033;-60
2022/07/15 03:14:27;;;;;;;9.25;3.50;;;;;;;11.37;100.00;102255.75;5026432;28;20057;-60
2022/07/15 03:16:52;;;;;;;9.60;4.20;;;;;;;11.34;100.00;102248.66;5024436;28;20488;-60
2022/07/15 03:19:17;;;;;;;8.25;3.65;;;;;;;11.32;100.00;102251.97;5014054;28;20037;-59
2022/07/15 03:21:43;;;;;;;8.35;3.88;;;;;;;11.30;100.00;102244.13;5024706;28;20040;-59
2022/07/15 03:24:11;;;;;;;9.15;4.20;;;;;;;11.27;100.00;102251.75;5024476;28;20025;-59
2022/07/15 03:26:37;;;;;;;8.20;4.05;;;;;;;11.26;100.00;102268.16;5023647;28;20026;-59
2022/07/15 03:29:02;;;;;;;8.27;3.75;;;;;;;11.24;100.00;102260.25;5023953;28;20480;-59
2022/07/15 03:31:27;;;;;;;8.90;4.13;;;;;;;11.21;100.00;102267.00;5024553;28;20030;-59
2022/07/15 03:33:55;;;;;;;8.95;4.20;;;;;;;11.22;100.00;102263.59;5025182;28;20447;-59
2022/07/15 03:36:20;;;;;;;6.15;3.15;;;;;;;11.23;100.00;102268.88;5025920;28;20041;-59
2022/07/15 03:38:45;;;;;;;6.88;4.18;;;;;;;11.24;100.00;102268.03;5029259;28;20033;-59
2022/07/15 03:41:11;;;;;;;9.60;3.85;;;;;;;11.25;100.00;102276.72;5029119;28;20080;-59
2022/07/15 03:43:36;;;;;;;7.68;3.83;;;;;;;11.25;100.00;102276.72;5027130;28;20033;-59
2022/07/15 03:46:01;;;;;;;7.80;3.65;;;;;;;11.25;100.00;102271.53;5026292;28;20495;-59
2022/07/15 03:48:26;;;;;;;10.88;3.88;;;;;;;11.26;100.00;102274.22;5029478;28;20029;-59
2022/07/15 03:50:52;;;;;;;13.07;4.18;;;;;;;11.26;100.00;102271.63;5028921;28;20033;-60
2022/07/15 03:53:17;;;;;;;11.07;4.00;;;;;;;11.29;100.00;102274.41;5029158;28;20067;-60
2022/07/15 03:55:42;;;;;;;5.20;3.92;;;;;;;11.30;100.00;102283.06;5029530;28;20037;-58
2022/07/15 03:58:07;;;;;;;9.77;4.00;;;;;;;11.32;100.00;102277.94;5027637;28;20548;-59
2022/07/15 04:00:33;;;;;;;11.38;3.97;;;;;;;11.34;100.00;102276.31;5020548;28;20064;-59
2022/07/15 04:02:58;;;;;;;5.35;3.63;;;;;;;11.33;100.00;102284.94;5026052;28;20520;-58
2022/07/15 04:05:23;;;;;;;10.15;4.43;;;;;;;11.34;100.00;102287.59;5029378;28;20044;-58
2022/07/15 04:07:49;;;;;;;13.93;4.38;;;;;;;11.37;100.00;102286.88;5028983;28;20029;-59
2022/07/15 04:10:14;;;;;;;7.20;4.05;;;;;;;11.37;100.00;102286.88;5028816;28;20037;-59
2022/07/15 04:12:41;;;;;;;8.38;3.47;;;;;;;11.41;100.00;102288.81;5029483;28;20029;-59
2022/07/15 04:15:07;;;;;;;9.55;4.05;;;;;;;11.49;100.00;102284.00;5015849;28;20029;-59
2022/07/15 04:17:32;;;;;;;6.82;3.95;;;;;;;11.52;100.00;102290.25;5022822;28;20032;-58
2022/07/15 04:19:57;;;;;;;7.75;4.10;;;;;;;11.59;100.00;102288.84;5021982;28;20029;-59
2022/07/15 04:22:23;;;;;;;5.90;4.10;;;;;;;11.67;100.00;102288.34;5028181;28;20529;-59
2022/07/15 04:24:48;;;;;;;13.85;4.50;;;;;;;11.70;100.00;102283.31;5028826;28;20060;-59
2022/07/15 04:27:14;;;;;;;8.95;4.07;;;;;;;11.76;100.00;102289.69;5029048;28;20524;-60
2022/07/15 04:29:39;;;;;;;7.65;4.22;;;;;;;11.83;100.00;102284.81;5020981;28;20052;-60
2022/07/15 04:32:05;;;;;;;7.38;3.95;;;;;;;11.88;100.00;102291.13;5028276;28;20036;-60
2022/07/15 04:34:30;;;;;;;12.27;3.97;;;;;;;11.96;100.00;102282.00;5028067;28;20128;-59
2022/07/15 04:36:56;;;;;;;9.80;4.30;;;;;;;12.04;100.00;102285.00;5028195;28;20484;-60
2022/07/15 04:39:21;;;;;;;7.60;3.65;;;;;;;12.13;100.00;102287.19;5024715;28;20382;-60
2022/07/15 04:41:46;;;;;;;11.27;4.00;;;;;;;12.20;100.00;102288.38;5009319;28;20053;-60
2022/07/15 04:44:11;;;;;;;6.60;4.13;;;;;;;12.28;100.00;102288.75;5025254;28;20036;-59
2022/07/15 04:46:37;;;;;;;6.40;3.83;;;;;;;12.36;100.00;102290.00;5028313;28;20022;-60
2022/07/15 04:51:46;;;;;;;7.53;4.07;;;;;;;12.49;100.00;102289.78;5028359;28;20148;-60
2022/07/15 04:54:11;;;;;;;12.95;4.05;;;;;;;12.57;100.00;102297.94;5027331;28;20483;-60
2022/07/15 04:56:37;;;;;;;9.93;4.10;;;;;;;12.64;100.00;102293.91;5021935;28;20034;-61
2022/07/15 04:59:02;;;;;;;9.25;3.97;;;;;;;12.70;100.00;102291.59;5021659;28;20516;-60
2022/07/15 05:01:27;;;;;;;9.10;3.83;;;;;;;12.73;100.00;102294.34;5028218;28;20033;-60
2022/07/15 05:03:53;;;;;;;8.43;4.00;;;;;;;12.75;100.00;102298.72;5028438;28;20172;-60
2022/07/15 05:06:18;;;;;;;8.10;4.15;;;;;;;12.78;100.00;102301.47;5027740;28;20083;-60
2022/07/15 05:08:43;;;;;;;6.28;3.83;;;;;;;12.79;100.00;102295.47;5027984;28;20099;-60
2022/07/15 05:11:09;;;;;;;9.05;4.05;;;;;;;12.83;100.00;102302.56;5027743;28;20033;-60
2022/07/15 05:13:37;;;;;;;9.23;4.03;;;;;;;12.79;100.00;102304.13;5015359;28;20453;-60
2022/07/15 05:16:03;;;;;;;5.72;3.95;;;;;;;12.75;100.00;102297.03;5027446;28;20492;-59
2022/07/15 05:18:28;;;;;;;6.63;4.40;;;;;;;12.76;100.00;102298.78;5010539;28;20048;-60
2022/07/15 05:20:53;;;;;;;8.25;3.60;;;;;;;12.80;100.00;102308.53;5027828;28;20401;-60
2022/07/15 05:23:19;;;;;;;6.70;4.18;;;;;;;12.85;100.00;102300.91;5015675;28;20040;-60
2022/07/15 05:25:45;;;;;;;8.00;3.85;;;;;;;12.93;100.00;102309.97;5026780;28;20269;-60
2022/07/15 05:28:11;;;;;;;7.00;3.63;;;;;;;13.01;100.00;102306.81;5028076;28;20079;-59
2022/07/15 05:30:37;;;;;;;5.13;3.95;;;;;;;13.09;100.00;102308.06;5026832;28;20041;-60
2022/07/15 05:33:02;;;;;;;7.35;3.58;;;;;;;13.19;100.00;102312.88;5027297;28;20032;-61
2022/07/15 05:35:28;;;;;;;8.77;4.65;;;;;;;13.31;100.00;102301.22;5027183;28;20064;-60
2022/07/15 05:37:53;;;;;;;6.00;3.70;;;;;;;13.44;100.00;102303.53;5027217;28;20060;-59
2022/07/15 05:40:19;;;;;;;6.03;3.78;;;;;;;13.56;100.00;102299.72;5026799;28;20060;-58
2022/07/15 05:42:44;;;;;;;8.27;4.20;;;;;;;13.67;100.00;102301.03;5027277;28;20045;-59
2022/07/15 05:45:10;;;;;;;9.43;4.38;;;;;;;13.78;100.00;102287.63;5027133;28;20031;-59
2022/07/15 05:47:35;;;;;;;9.82;4.15;;;;;;;13.90;100.00;102297.66;5027291;28;20029;-60
2022/07/15 05:50:00;;;;;;;9.40;4.20;;;;;;;14.02;100.00;102297.25;5027065;28;20366;-60
2022/07/15 05:52:26;;;;;;;9.98;4.68;;;;;;;14.11;100.00;102289.81;5026845;28;20017;-60
2022/07/15 05:54:51;;;;;;;5.93;4.03;;;;;;;14.25;100.00;102294.69;5027208;28;20096;-59
2022/07/15 05:57:16;;;;;;;9.23;3.80;;;;;;;14.36;99.95;102288.19;5027300;28;20458;-60
2022/07/15 05:59:43;;;;;;;7.72;3.75;;;;;;;14.50;98.67;102286.09;5026297;28;20013;-60
2022/07/15 06:02:08;;;;;;;5.68;4.80;;;;;;;14.67;98.11;102287.59;5027869;28;20026;-60
2022/07/15 06:04:33;;;;;;;8.82;3.85;;;;;;;14.80;97.16;102287.25;5026838;28;20025;-60
2022/07/15 06:06:58;;;;;;;6.97;3.95;;;;;;;14.92;96.86;102288.53;5027194;28;20037;-60
2022/07/15 06:09:24;;;;;;;6.03;3.72;;;;;;;15.06;97.13;102294.25;5026626;28;20029;-60
2022/07/15 06:11:49;;;;;;;7.28;3.20;;;;;;;15.19;94.98;102290.38;5026801;28;20148;-60
2022/07/15 06:14:15;;;;;;;4.38;2.78;;;;;;;15.34;94.31;102287.44;5026723;28;20374;-60
2022/07/15 06:16:40;;;;;;;6.80;3.45;;;;;;;15.52;94.38;102295.03;5026638;28;20025;-60
2022/07/15 06:19:08;;;;;;;7.57;3.20;;;;;;;15.71;93.86;102293.03;5022867;28;20036;-60
2022/07/15 06:21:33;;;;;;;6.13;2.75;;;;;;;15.91;92.92;102296.31;5026072;28;20033;-60
2022/07/15 06:24:00;;;;;;;7.18;2.45;;;;;;;16.09;90.93;102292.56;5026402;28;20033;-60
2022/07/15 06:26:25;;;;;;;5.90;1.60;;;;;;;16.25;88.19;102291.31;5026580;28;20025;-60
2022/07/15 06:28:50;;;;;;;8.73;1.95;;;;;;;16.38;84.82;102287.38;5026507;28;20036;-60
2022/07/15 06:31:15;;;;;;;3.30;1.90;;;;;;;16.55;85.51;102290.50;5026345;28;20034;-60
2022/07/15 06:33:41;;;;;;;5.40;1.83;;;;;;;16.73;84.91;102289.25;5025739;28;20493;-60
2022/07/15 06:36:06;;;;;;;3.08;1.10;;;;;;;16.90;82.64;102291.47;5026210;28;20049;-60
2022/07/15 06:38:32;;;;;;;3.65;1.23;;;;;;;17.05;81.38;102281.44;5026658;28;20034;-60
2022/07/15 06:40:57;;;;;;;4.43;1.77;;;;;;;17.23;80.98;102285.47;5025030;28;20060;-59
2022/07/15 06:43:22;;;;;;;6.43;1.35;;;;;;;17.40;78.99;102285.00;5025743;28;20119;-60
2022/07/15 06:45:48;;;;;;;4.97;1.20;;;;;;;17.54;78.94;102285.38;5026006;28;20029;-60
2022/07/15 06:48:13;;;;;;;3.10;0.77;;;;;;;17.68;76.94;102277.88;5026024;28;20107;-60
2022/07/15 06:50:39;;;;;;;2.60;0.90;;;;;;;17.88;76.13;102280.97;5026134;28;20025;-60
2022/07/15 06:53:04;;;;;;;4.28;1.00;;;;;;;18.06;74.66;102289.28;5026144;28;20034;-61
2022/07/15 06:55:29;;;;;;;3.72;1.10;;;;;;;18.19;73.02;102283.47;5025743;28;20576;-60
2022/07/15 06:57:55;;;;;;;2.70;0.85;;;;;;;18.33;71.47;102282.94;5025959;28;20049;-60
2022/07/15 07:00:20;;;;;;;3.42;0.90;;;;;;;18.46;70.16;102282.34;5026402;28;20056;-60
2022/07/15 07:02:46;;;;;;;4.60;1.00;;;;;;;18.63;69.46;102286.19;5025464;28;20028;-58
2022/07/15 07:05:11;;;;;;;5.00;1.27;;;;;;;18.76;67.57;102282.06;5025851;28;20116;-60
2022/07/15 07:07:37;;;;;;;3.22;0.77;;;;;;;18.76;66.40;102292.56;5026532;28;20028;-61
2022/07/15 07:10:02;;;;;;;4.13;0.70;;;;;;;18.93;67.59;102291.19;5025701;28;20480;-59
2022/07/15 07:12:28;;;;;;;2.60;0.70;;;;;;;19.12;66.65;102290.69;5028340;28;20034;-60
2022/07/15 07:14:53;;;;;;;3.80;0.80;;;;;;;19.29;65.33;102289.25;5030092;28;20033;-60
2022/07/15 07:17:19;;;;;;;3.35;0.68;;;;;;;19.41;64.46;102296.47;5025318;28;20119;-60
2022/07/15 07:19:44;;;;;;;6.80;0.85;;;;;;;19.51;63.04;102299.28;5021057;28;20021;-60
2022/07/15 07:22:10;;;;;;;1.73;0.80;;;;;;;19.66;63.63;102298.66;5030053;28;20020;-61
2022/07/15 07:24:35;;;;;;;3.05;1.13;;;;;;;19.77;63.35;102297.09;5029833;28;20018;-60
2022/07/15 07:27:00;;;;;;;4.80;0.82;;;;;;;19.81;61.95;102300.66;5029616;28;20404;-61
2022/07/15 07:29:25;;;;;;;3.15;0.80;;;;;;;19.96;63.02;102300.03;5029793;28;20026;-61
2022/07/15 07:31:51;;;;;;;4.15;0.75;;;;;;;20.07;62.95;102294.97;5029769;28;20037;-60
2022/07/15 07:34:18;;;;;;;2.78;1.08;;;;;;;20.23;62.54;102303.09;5029172;28;20389;-61
2022/07/15 07:36:45;;;;;;;5.35;1.17;;;;;;;20.37;60.84;102298.91;5029703;28;20047;-59
2022/07/15 07:39:11;;;;;;;5.03;1.40;;;;;;;20.44;60.98;102298.97;5024211;28;20397;-60
2022/07/15 07:41:36;;;;;;;3.55;1.15;;;;;;;20.54;61.74;102308.78;5029433;28;20447;-60
2022/07/15 07:44:01;;;;;;;4.07;1.10;;;;;;;20.55;60.62;102317.56;5028013;28;20104;-59
2022/07/15 07:46:27;;;;;;;3.85;0.85;;;;;;;20.50;60.12;102309.59;5017126;28;20029;-60
2022/07/15 07:48:52;;;;;;;6.57;0.93;;;;;;;20.39;60.89;102315.63;5029480;28;20067;-61
2022/07/15 07:51:18;;;;;;;5.22;1.00;;;;;;;20.54;61.71;102314.06;5029555;28;20022;-60
2022/07/15 07:53:43;;;;;;;4.13;1.10;;;;;;;20.72;58.84;102317.78;5029494;28;20022;-60
2022/07/15 07:56:09;;;;;;;5.43;1.05;;;;;;;20.58;58.13;102315.00;5028609;28;20036;-60
2022/07/15 07:58:35;;;;;;;3.22;0.70;;;;;;;20.37;59.51;102308.53;5029015;28;20425;-60
2022/07/15 08:01:01;;;;;;;2.00;0.85;;;;;;;20.23;58.49;102316.25;5029533;28;20030;-60
2022/07/15 08:03:27;;;;;;;3.83;1.17;;;;;;;20.07;60.02;102305.50;5029541;28;20381;-61
2022/07/15 08:05:53;;;;;;;2.60;1.05;;;;;;;20.27;60.86;102307.53;5029057;28;20029;-59
2022/07/15 08:08:20;;;;;;;3.67;0.90;;;;;;;20.60;60.03;102311.50;5025144;28;20492;-59
2022/07/15 08:10:48;;;;;;;4.57;0.90;;;;;;;20.98;59.65;102302.34;5027440;28;20041;-59
2022/07/15 08:13:18;;;;;;;4.93;1.05;;;;;;;21.32;58.62;102308.81;5028986;28;20029;-60
2022/07/15 08:15:44;;;;;;;4.22;0.88;;;;;;;21.58;57.96;102314.38;5029110;28;20059;-59
2022/07/15 08:18:10;;;;;;;3.35;1.00;;;;;;;21.75;57.25;102303.06;5017433;28;20030;-60
2022/07/15 08:20:35;;;;;;;3.80;0.93;;;;;;;21.81;54.72;102311.06;5013304;28;20105;-60
2022/07/15 08:23:02;;;;;;;3.45;0.60;;;;;;;21.47;54.39;102313.38;5028914;28;20056;-60
2022/07/15 08:25:29;;;;;;;1.58;0.73;;;;;;;21.09;53.87;102315.63;5028886;28;20037;-60
2022/07/15 08:27:56;;;;;;;3.30;0.70;;;;;;;20.72;54.02;102325.69;5028910;28;20109;-59
2022/07/15 08:30:23;;;;;;;2.60;0.93;;;;;;;20.72;55.81;102320.44;5028574;28;20040;-60
2022/07/15 08:32:48;;;;;;;3.05;0.77;;;;;;;20.86;53.56;102324.13;5028636;28;20059;-58
2022/07/15 08:35:14;;;;;;;4.43;0.85;;;;;;;21.12;54.07;102314.78;5019711;28;20681;-60
2022/07/15 08:37:39;;;;;;;3.50;1.15;;;;;;;21.40;53.37;102327.38;5025947;28;20057;-60
2022/07/15 08:40:08;;;;;;;3.78;1.00;;;;;;;21.42;52.06;102317.72;5018155;28;20059;-59
2022/07/15 08:42:33;;;;;;;3.75;0.90;;;;;;;21.03;52.09;102315.56;5026003;28;20025;-60
2022/07/15 08:44:58;;;;;;;3.45;0.80;;;;;;;21.34;52.89;102308.00;5028551;28;20026;-60
2022/07/15 08:47:24;;;;;;;5.07;0.80;;;;;;;21.70;52.02;102312.69;5028776;28;20052;-60
2022/07/15 08:49:55;;;;;;;2.03;0.75;;;;;;;21.98;50.82;102310.34;5028333;28;20071;-60
2022/07/15 08:52:22;;;;;;;3.92;0.85;;;;;;;22.21;48.86;102304.31;5028514;28;20030;-60
2022/07/15 08:54:48;;;;;;;4.57;0.90;;;;;;;22.38;49.93;102308.81;5026574;28;20037;-58
2022/07/15 08:57:14;;;;;;;2.50;0.75;;;;;;;22.51;49.51;102308.00;5028619;28;20032;-60
2022/07/15 08:59:39;;;;;;;3.10;0.70;;;;;;;22.67;50.24;102305.44;5025216;28;20105;-60
2022/07/15 09:02:04;;;;;;;2.67;0.75;;;;;;;22.82;50.12;102301.13;5009594;28;20462;-60
2022/07/15 09:04:30;;;;;;;3.88;0.88;;;;;;;22.86;48.67;102308.19;5017116;28;20040;-61
2022/07/15 09:07:02;;;;;;;2.97;0.95;;;;;;;22.96;48.93;102309.97;5027704;28;20477;-61
2022/07/15 09:09:31;;;;;;;5.78;0.77;;;;;;;23.04;49.32;102304.72;5027433;28;20299;-59
2022/07/15 09:12:04;;;;;;;2.83;0.88;;;;;;;23.02;46.47;102293.25;5027667;28;20033;-60
2022/07/15 09:14:31;;;;;;;6.70;1.05;;;;;;;23.00;44.92;102287.97;5028007;28;20378;-61
2022/07/15 09:17:09;;;;;;;2.63;0.57;;;;;;;23.06;46.07;102288.84;5025983;28;20057;-60
2022/07/15 09:20:07;;;;;;;4.53;0.65;;;;;;;23.31;47.67;102294.19;5024507;28;20064;-60
2022/07/15 09:22:57;;;;;;;3.28;0.80;;;;;;;23.31;45.53;102296.84;5014183;28;20026;-60
2022/07/15 09:25:23;;;;;;;3.63;0.60;;;;;;;23.01;45.18;102291.47;5027935;28;20029;-61
2022/07/15 09:27:49;;;;;;;4.28;0.80;;;;;;;22.84;45.97;102292.31;5027744;28;20253;-61
2022/07/15 09:36:01;;;;;;;1.95;0.68;;;;;;;23.20;45.87;102289.78;5026785;28;20035;-61
2022/07/15 09:38:33;;;;;;;1.48;0.65;;;;;;;23.53;46.84;102300.41;5027783;28;20036;-61
2022/07/15 09:40:59;;;;;;;4.82;0.77;;;;;;;23.63;44.05;102291.59;5027102;28;20116;-62
2022/07/15 09:43:25;;;;;;;2.85;0.82;;;;;;;23.56;43.67;102296.88;5024465;28;20497;-61
2022/07/15 09:46:01;;;;;;;3.75;0.90;;;;;;;23.48;45.54;102292.47;5023626;28;20033;-61
2022/07/15 09:48:28;;;;;;;3.63;0.60;;;;;;;23.70;45.33;102288.94;5027413;28;20091;-62
2022/07/15 09:50:59;;;;;;;3.92;0.70;;;;;;;23.87;45.16;102288.94;5027294;28;20071;-62
2022/07/15 09:53:25;;;;;;;5.47;0.93;;;;;;;23.94;44.26;102290.72;5027473;28;20031;-61
2022/07/15 09:55:52;;;;;;;3.55;0.75;;;;;;;23.83;45.60;102293.38;5027046;28;20021;-61
2022/07/15 09:58:18;;;;;;;1.83;0.47;;;;;;;23.95;45.01;102291.56;5027075;28;20031;-62
2022/07/15 10:00:44;;;;;;;1.42;0.57;;;;;;;24.08;45.49;102279.19;5027610;28;20433;-62
2022/07/15 10:03:09;;;;;;;3.78;0.70;;;;;;;23.77;43.58;102282.78;5027420;28;20017;-62
2022/07/15 10:05:38;;;;;;;5.22;0.75;;;;;;;23.54;43.77;102274.84;5027115;28;20368;-61
2022/07/15 10:08:04;;;;;;;3.40;0.68;;;;;;;23.63;45.59;102274.84;5020653;28;20409;-61
2022/07/15 10:10:31;;;;;;;2.38;0.73;;;;;;;23.94;46.82;102269.53;5026874;28;20021;-61
2022/07/15 10:13:18;;;;;;;3.28;1.00;;;;;;;24.03;43.14;102279.22;5025473;28;20064;-61
2022/07/15 10:15:51;;;;;;;3.33;0.70;;;;;;;24.05;44.44;102279.22;5019911;28;20272;-63
2022/07/15 10:18:27;;;;;;;2.65;0.68;;;;;;;24.22;45.20;102277.44;5014813;28;20037;-63
2022/07/15 10:21:01;;;;;;;2.78;0.63;;;;;;;24.29;44.40;102272.09;5013307;28;20028;-62
2022/07/15 10:23:41;;;;;;;2.92;0.88;;;;;;;23.92;43.66;102273.94;5026650;28;20567;-62
2022/07/15 10:26:39;;;;;;;3.90;0.85;;;;;;;23.32;42.63;102264.22;5014609;28;20084;-63
2022/07/15 10:29:07;;;;;;;1.73;0.80;;;;;;;22.99;44.45;102262.41;5024505;28;20029;-63
2022/07/15 10:31:34;;;;;;;2.60;0.68;;;;;;;22.72;44.40;102264.09;5026833;28;20036;-62
2022/07/15 10:34:02;;;;;;;2.15;0.50;;;;;;;22.58;45.15;102260.50;5026787;28;20033;-63
2022/07/15 10:36:43;;;;;;;4.45;0.77;;;;;;;22.75;47.70;102261.47;5027353;28;20116;-63
2022/07/15 10:39:08;;;;;;;3.80;0.77;;;;;;;23.12;46.03;102267.72;5025992;28;20076;-62
2022/07/15 10:41:58;;;;;;;1.58;0.57;;;;;;;23.52;46.75;102264.25;5007373;28;20069;-62
2022/07/15 10:44:29;;;;;;;3.15;0.80;;;;;;;23.81;45.03;102246.59;5024435;28;20033;-62
2022/07/15 10:47:12;;;;;;;2.70;0.65;;;;;;;24.01;44.69;102254.50;5025366;28;20017;-62
2022/07/15 10:49:38;;;;;;;1.73;0.60;;;;;;;24.04;42.36;102251.84;5030275;28;20037;-62
2022/07/15 10:52:22;;;;;;;3.15;0.70;;;;;;;24.12;44.95;102254.50;5030650;28;20044;-62
2022/07/15 10:55:05;;;;;;;2.72;0.73;;;;;;;24.13;43.46;102250.94;5027726;28;20025;-61
2022/07/15 10:57:39;;;;;;;2.58;0.50;;;;;;;24.26;42.58;102246.53;5025269;28;20140;-61
2022/07/15 11:00:24;;;;;;;2.97;0.88;;;;;;;24.05;41.54;102244.81;5018248;28;20489;-62
2022/07/15 11:03:02;;;;;;;2.22;0.70;;;;;;;24.23;42.12;102236.81;5029872;28;20450;-63
2022/07/15 11:05:28;;;;;;;2.13;0.63;;;;;;;24.24;41.27;102235.06;5021570;28;20030;-63
2022/07/15 11:07:53;;;;;;;1.48;0.55;;;;;;;24.31;42.17;102234.16;5025818;28;20474;-63
2022/07/15 11:10:21;;;;;;;3.67;0.90;;;;;;;24.37;41.08;102227.97;5030323;28;20021;-62
2022/07/15 11:12:49;;;;;;;1.67;0.70;;;;;;;24.50;43.63;102230.53;5029824;28;20029;-63
2022/07/15 11:15:17;;;;;;;1.67;0.50;;;;;;;24.73;44.00;102232.19;5029979;28;20025;-63
2022/07/15 11:17:51;;;;;;;3.65;0.80;;;;;;;24.64;41.82;102235.78;5022362;28;20382;-62
2022/07/15 11:20:21;;;;;;;2.58;0.70;;;;;;;24.55;43.09;102234.06;5025281;28;20081;-62
2022/07/15 11:22:49;;;;;;;2.58;0.98;;;;;;;24.67;44.75;102231.34;5029886;28;20525;-62
2022/07/15 11:25:24;;;;;;;4.72;0.68;;;;;;;24.79;41.93;102226.88;5020976;28;20449;-63
2022/07/15 11:28:11;;;;;;;3.13;0.70;;;;;;;24.83;43.69;102233.88;5030147;28;20556;-62
2022/07/15 11:30:42;;;;;;;3.65;0.82;;;;;;;24.90;42.66;102214.41;5029255;28;20029;-62